Quantcast

A community for students.

Here's the question you clicked on:

55 members online
  • 0 replying
  • 0 viewing

MohammadMaaz

  • 2 years ago

To which aerodrome is the following TAF most applicable? TAF 230500Z 2306/2412 29014KT 6000 SCT030 BKN100 TEMPO 2311/2313 25020G38KT 2500 + TSRA SCT008 BKN025CB BECMG 2313/2315 280 12KT 9999 SCT025 TEMPO 2315/2317 5000 SHRA BKN020 BECMG 2317/2319 27008KT 9999 SCT030=

  • This Question is Closed
  1. KingGeorge
    • 2 years ago
    Best Response
    You've already chosen the best response.
    Medals 0

    I don't think this question belongs in the feedback area.

  2. MohammadMaaz
    • 2 years ago
    Best Response
    You've already chosen the best response.
    Medals 0

    ok

  3. Not the answer you are looking for?
    Search for more explanations.

    • Attachments:

Ask your own question

Sign Up
Find more explanations on OpenStudy
Privacy Policy

Your question is ready. Sign up for free to start getting answers.

spraguer (Moderator)
5 → View Detailed Profile

is replying to Can someone tell me what button the professor is hitting...

23

  • Teamwork 19 Teammate
  • Problem Solving 19 Hero
  • You have blocked this person.
  • ✔ You're a fan Checking fan status...

Thanks for being so helpful in mathematics. If you are getting quality help, make sure you spread the word about OpenStudy.

This is the testimonial you wrote.
You haven't written a testimonial for Owlfred.